sensor_id;sensor_type;location;lat;lon;timestamp;temperature;humidity
20773;DHT22;10546;50.674;4.616;2023-04-06T00:01:37;7.10;96.20
20773;DHT22;10546;50.674;4.616;2023-04-06T00:04:03;7.10;96.20
20773;DHT22;10546;50.674;4.616;2023-04-06T00:06:29;7.10;95.80
20773;DHT22;10546;50.674;4.616;2023-04-06T00:08:55;7.10;95.80
20773;DHT22;10546;50.674;4.616;2023-04-06T00:11:22;7.20;95.90
20773;DHT22;10546;50.674;4.616;2023-04-06T00:13:48;7.20;95.60
20773;DHT22;10546;50.674;4.616;2023-04-06T00:16:13;7.10;95.70
20773;DHT22;10546;50.674;4.616;2023-04-06T00:18:39;7.00;95.80
20773;DHT22;10546;50.674;4.616;2023-04-06T00:21:05;7.00;96.00
20773;DHT22;10546;50.674;4.616;2023-04-06T00:23:31;7.00;96.10
20773;DHT22;10546;50.674;4.616;2023-04-06T00:25:57;7.00;96.10
20773;DHT22;10546;50.674;4.616;2023-04-06T00:28:22;7.10;96.10
20773;DHT22;10546;50.674;4.616;2023-04-06T00:30:52;7.10;96.00
20773;DHT22;10546;50.674;4.616;2023-04-06T00:33:19;7.10;96.10
20773;DHT22;10546;50.674;4.616;2023-04-06T00:35:45;7.10;96.20
20773;DHT22;10546;50.674;4.616;2023-04-06T00:38:12;7.10;96.40
20773;DHT22;10546;50.674;4.616;2023-04-06T00:40:37;7.10;96.40
20773;DHT22;10546;50.674;4.616;2023-04-06T00:43:05;7.10;96.40
20773;DHT22;10546;50.674;4.616;2023-04-06T00:45:31;7.20;96.50
20773;DHT22;10546;50.674;4.616;2023-04-06T00:47:57;7.20;96.30
20773;DHT22;10546;50.674;4.616;2023-04-06T00:50:23;7.20;96.40
20773;DHT22;10546;50.674;4.616;2023-04-06T00:52:49;7.20;96.40
20773;DHT22;10546;50.674;4.616;2023-04-06T00:55:14;7.20;96.70
20773;DHT22;10546;50.674;4.616;2023-04-06T00:57:40;7.20;96.40
20773;DHT22;10546;50.674;4.616;2023-04-06T01:00:06;7.20;96.40
20773;DHT22;10546;50.674;4.616;2023-04-06T01:02:32;7.20;96.50
20773;DHT22;10546;50.674;4.616;2023-04-06T01:04:58;7.30;96.60
20773;DHT22;10546;50.674;4.616;2023-04-06T01:07:23;7.40;96.60
20773;DHT22;10546;50.674;4.616;2023-04-06T01:09:50;7.30;96.80
20773;DHT22;10546;50.674;4.616;2023-04-06T01:12:15;7.30;97.10
20773;DHT22;10546;50.674;4.616;2023-04-06T01:14:41;7.30;97.10
20773;DHT22;10546;50.674;4.616;2023-04-06T01:17:07;7.30;97.20
20773;DHT22;10546;50.674;4.616;2023-04-06T01:19:32;7.40;97.00
20773;DHT22;10546;50.674;4.616;2023-04-06T01:21:58;7.40;97.20
20773;DHT22;10546;50.674;4.616;2023-04-06T01:24:24;7.40;97.20
20773;DHT22;10546;50.674;4.616;2023-04-06T01:26:49;7.40;97.10
20773;DHT22;10546;50.674;4.616;2023-04-06T01:29:15;7.30;97.30
20773;DHT22;10546;50.674;4.616;2023-04-06T01:31:41;7.30;97.40
20773;DHT22;10546;50.674;4.616;2023-04-06T01:34:06;7.30;97.60
20773;DHT22;10546;50.674;4.616;2023-04-06T01:36:32;7.40;97.40
20773;DHT22;10546;50.674;4.616;2023-04-06T01:38:58;7.30;97.30
20773;DHT22;10546;50.674;4.616;2023-04-06T01:41:23;7.40;97.10
20773;DHT22;10546;50.674;4.616;2023-04-06T01:43:49;7.50;97.10
20773;DHT22;10546;50.674;4.616;2023-04-06T04:41:49;6.60;99.90
20773;DHT22;10546;50.674;4.616;2023-04-06T04:44:15;6.60;99.90
20773;DHT22;10546;50.674;4.616;2023-04-06T04:46:41;6.60;99.90
20773;DHT22;10546;50.674;4.616;2023-04-06T04:49:06;6.70;99.90
20773;DHT22;10546;50.674;4.616;2023-04-06T04:51:32;6.70;99.90
20773;DHT22;10546;50.674;4.616;2023-04-06T04:53:59;6.60;99.90
20773;DHT22;10546;50.674;4.616;2023-04-06T04:56:26;6.70;99.90
20773;DHT22;10546;50.674;4.616;2023-04-06T04:58:52;6.70;99.90
20773;DHT22;10546;50.674;4.616;2023-04-06T05:01:18;6.70;99.90
20773;DHT22;10546;50.674;4.616;2023-04-06T05:03:44;6.70;99.90
20773;DHT22;10546;50.674;4.616;2023-04-06T05:06:09;6.80;99.90
20773;DHT22;10546;50.674;4.616;2023-04-06T05:08:36;6.90;99.90
20773;DHT22;10546;50.674;4.616;2023-04-06T05:11:01;7.00;99.90
20773;DHT22;10546;50.674;4.616;2023-04-06T05:13:30;7.00;99.90
20773;DHT22;10546;50.674;4.616;2023-04-06T05:15:56;7.10;99.90
20773;DHT22;10546;50.674;4.616;2023-04-06T05:18:21;7.10;99.90
20773;DHT22;10546;50.674;4.616;2023-04-06T05:20:47;7.10;99.90
20773;DHT22;10546;50.674;4.616;2023-04-06T05:23:13;7.10;99.90
20773;DHT22;10546;50.674;4.616;2023-04-06T05:25:39;7.10;99.90
20773;DHT22;10546;50.674;4.616;2023-04-06T05:28:04;7.10;99.90
20773;DHT22;10546;50.674;4.616;2023-04-06T05:30:30;7.10;99.90
20773;DHT22;10546;50.674;4.616;2023-04-06T05:32:56;7.20;99.90
20773;DHT22;10546;50.674;4.616;2023-04-06T05:35:22;7.20;99.90
20773;DHT22;10546;50.674;4.616;2023-04-06T05:37:48;7.30;99.90
20773;DHT22;10546;50.674;4.616;2023-04-06T05:40:13;7.20;99.90
20773;DHT22;10546;50.674;4.616;2023-04-06T05:42:40;7.20;99.90
20773;DHT22;10546;50.674;4.616;2023-04-06T05:45:09;7.30;99.90
20773;DHT22;10546;50.674;4.616;2023-04-06T05:47:45;7.40;99.90
20773;DHT22;10546;50.674;4.616;2023-04-06T05:50:11;7.40;99.90
20773;DHT22;10546;50.674;4.616;2023-04-06T05:52:37;7.50;99.90
20773;DHT22;10546;50.674;4.616;2023-04-06T05:55:03;7.40;99.90
20773;DHT22;10546;50.674;4.616;2023-04-06T05:57:29;7.40;99.90
20773;DHT22;10546;50.674;4.616;2023-04-06T05:59:55;7.50;99.90
20773;DHT22;10546;50.674;4.616;2023-04-06T06:02:21;7.50;99.90
20773;DHT22;10546;50.674;4.616;2023-04-06T06:04:47;7.50;99.90
20773;DHT22;10546;50.674;4.616;2023-04-06T06:07:16;7.50;99.90
20773;DHT22;10546;50.674;4.616;2023-04-06T06:09:42;7.60;99.90
20773;DHT22;10546;50.674;4.616;2023-04-06T06:12:08;7.60;99.90
20773;DHT22;10546;50.674;4.616;2023-04-06T06:14:34;7.70;99.90
20773;DHT22;10546;50.674;4.616;2023-04-06T06:16:59;7.70;99.90
20773;DHT22;10546;50.674;4.616;2023-04-06T06:19:25;7.70;99.90
20773;DHT22;10546;50.674;4.616;2023-04-06T06:21:51;7.70;99.90
20773;DHT22;10546;50.674;4.616;2023-04-06T06:24:16;7.80;99.90
20773;DHT22;10546;50.674;4.616;2023-04-06T06:26:42;7.80;99.90
20773;DHT22;10546;50.674;4.616;2023-04-06T06:29:08;7.90;99.90
20773;DHT22;10546;50.674;4.616;2023-04-06T06:31:34;7.90;99.90
20773;DHT22;10546;50.674;4.616;2023-04-06T06:34:00;7.90;99.90
20773;DHT22;10546;50.674;4.616;2023-04-06T06:36:27;7.90;99.90
20773;DHT22;10546;50.674;4.616;2023-04-06T06:38:53;8.00;99.90
20773;DHT22;10546;50.674;4.616;2023-04-06T06:41:18;8.10;99.90
20773;DHT22;10546;50.674;4.616;2023-04-06T06:43:44;8.20;99.90
20773;DHT22;10546;50.674;4.616;2023-04-06T06:46:10;8.20;99.90
20773;DHT22;10546;50.674;4.616;2023-04-06T06:48:36;8.20;99.90
20773;DHT22;10546;50.674;4.616;2023-04-06T06:51:01;8.20;99.90
20773;DHT22;10546;50.674;4.616;2023-04-06T06:53:27;8.10;99.90
20773;DHT22;10546;50.674;4.616;2023-04-06T06:55:53;8.20;99.90
20773;DHT22;10546;50.674;4.616;2023-04-06T06:58:19;8.30;99.90
20773;DHT22;10546;50.674;4.616;2023-04-06T07:00:48;8.20;99.90
20773;DHT22;10546;50.674;4.616;2023-04-06T07:03:13;8.10;99.90
20773;DHT22;10546;50.674;4.616;2023-04-06T07:05:45;8.10;99.90
20773;DHT22;10546;50.674;4.616;2023-04-06T07:08:10;8.10;99.90
20773;DHT22;10546;50.674;4.616;2023-04-06T07:10:36;8.20;99.90
20773;DHT22;10546;50.674;4.616;2023-04-06T07:13:01;8.20;99.90
20773;DHT22;10546;50.674;4.616;2023-04-06T07:15:27;8.30;99.90
20773;DHT22;10546;50.674;4.616;2023-04-06T07:17:53;8.30;99.90
20773;DHT22;10546;50.674;4.616;2023-04-06T07:20:19;8.30;99.90
20773;DHT22;10546;50.674;4.616;2023-04-06T07:22:45;8.30;99.90
20773;DHT22;10546;50.674;4.616;2023-04-06T07:25:11;8.30;99.90
20773;DHT22;10546;50.674;4.616;2023-04-06T07:27:36;8.20;99.90
20773;DHT22;10546;50.674;4.616;2023-04-06T07:30:02;8.30;99.90
20773;DHT22;10546;50.674;4.616;2023-04-06T07:32:28;8.20;99.90
20773;DHT22;10546;50.674;4.616;2023-04-06T07:34:54;8.20;99.90
20773;DHT22;10546;50.674;4.616;2023-04-06T07:37:19;8.30;99.90
20773;DHT22;10546;50.674;4.616;2023-04-06T07:39:45;8.20;99.90
20773;DHT22;10546;50.674;4.616;2023-04-06T07:42:11;8.30;99.90
20773;DHT22;10546;50.674;4.616;2023-04-06T07:44:37;8.40;99.90
20773;DHT22;10546;50.674;4.616;2023-04-06T07:47:03;8.50;99.90
20773;DHT22;10546;50.674;4.616;2023-04-06T07:49:28;8.70;99.90
20773;DHT22;10546;50.674;4.616;2023-04-06T07:51:54;8.90;99.90
20773;DHT22;10546;50.674;4.616;2023-04-06T07:54:20;8.90;99.90
20773;DHT22;10546;50.674;4.616;2023-04-06T07:56:46;9.00;99.90
20773;DHT22;10546;50.674;4.616;2023-04-06T07:59:11;9.00;99.90
20773;DHT22;10546;50.674;4.616;2023-04-06T08:01:38;9.00;99.90
20773;DHT22;10546;50.674;4.616;2023-04-06T08:04:04;9.10;99.90
20773;DHT22;10546;50.674;4.616;2023-04-06T08:06:30;8.90;99.90
20773;DHT22;10546;50.674;4.616;2023-04-06T08:08:56;8.80;99.90
20773;DHT22;10546;50.674;4.616;2023-04-06T08:11:21;8.70;99.90
20773;DHT22;10546;50.674;4.616;2023-04-06T08:13:47;8.70;99.90
20773;DHT22;10546;50.674;4.616;2023-04-06T08:16:13;8.80;99.90
20773;DHT22;10546;50.674;4.616;2023-04-06T08:18:38;8.80;99.90
20773;DHT22;10546;50.674;4.616;2023-04-06T08:21:04;8.80;99.90
20773;DHT22;10546;50.674;4.616;2023-04-06T08:23:30;8.70;99.90
20773;DHT22;10546;50.674;4.616;2023-04-06T08:25:55;8.70;99.90
20773;DHT22;10546;50.674;4.616;2023-04-06T08:28:21;8.60;99.90
20773;DHT22;10546;50.674;4.616;2023-04-06T08:30:47;8.70;99.90
20773;DHT22;10546;50.674;4.616;2023-04-06T08:33:13;8.70;99.90
20773;DHT22;10546;50.674;4.616;2023-04-06T08:35:38;8.90;99.90
20773;DHT22;10546;50.674;4.616;2023-04-06T08:38:04;9.00;99.90
20773;DHT22;10546;50.674;4.616;2023-04-06T08:40:38;9.10;99.90
20773;DHT22;10546;50.674;4.616;2023-04-06T08:43:08;9.30;99.90
20773;DHT22;10546;50.674;4.616;2023-04-06T08:45:34;9.50;99.90
20773;DHT22;10546;50.674;4.616;2023-04-06T08:48:02;9.50;99.90
20773;DHT22;10546;50.674;4.616;2023-04-06T08:50:30;9.40;99.90
20773;DHT22;10546;50.674;4.616;2023-04-06T08:52:55;9.50;99.90
20773;DHT22;10546;50.674;4.616;2023-04-06T08:55:22;9.60;99.90
20773;DHT22;10546;50.674;4.616;2023-04-06T08:57:48;9.40;99.90
20773;DHT22;10546;50.674;4.616;2023-04-06T09:00:15;9.30;99.90
20773;DHT22;10546;50.674;4.616;2023-04-06T09:02:42;9.30;99.90
20773;DHT22;10546;50.674;4.616;2023-04-06T09:05:09;9.30;99.90
20773;DHT22;10546;50.674;4.616;2023-04-06T09:07:38;9.20;99.90
20773;DHT22;10546;50.674;4.616;2023-04-06T09:10:05;9.20;99.90
20773;DHT22;10546;50.674;4.616;2023-04-06T09:12:31;9.20;99.90
20773;DHT22;10546;50.674;4.616;2023-04-06T09:14:58;9.20;99.90
20773;DHT22;10546;50.674;4.616;2023-04-06T09:17:26;9.20;99.90
20773;DHT22;10546;50.674;4.616;2023-04-06T09:19:52;9.20;99.90
20773;DHT22;10546;50.674;4.616;2023-04-06T09:22:19;9.10;99.90
20773;DHT22;10546;50.674;4.616;2023-04-06T09:24:47;9.20;99.90
20773;DHT22;10546;50.674;4.616;2023-04-06T09:27:14;9.20;99.90
20773;DHT22;10546;50.674;4.616;2023-04-06T09:29:43;9.10;99.90
20773;DHT22;10546;50.674;4.616;2023-04-06T09:32:11;9.00;99.90
20773;DHT22;10546;50.674;4.616;2023-04-06T09:34:38;9.10;99.90
20773;DHT22;10546;50.674;4.616;2023-04-06T09:37:14;9.10;99.90
20773;DHT22;10546;50.674;4.616;2023-04-06T09:39:40;9.30;99.90
20773;DHT22;10546;50.674;4.616;2023-04-06T09:42:06;9.20;99.90
20773;DHT22;10546;50.674;4.616;2023-04-06T09:44:32;9.20;99.90
20773;DHT22;10546;50.674;4.616;2023-04-06T09:46:57;9.20;99.90
20773;DHT22;10546;50.674;4.616;2023-04-06T09:49:24;9.10;99.90
20773;DHT22;10546;50.674;4.616;2023-04-06T09:52:01;9.10;99.90
20773;DHT22;10546;50.674;4.616;2023-04-06T09:54:29;8.90;99.90
20773;DHT22;10546;50.674;4.616;2023-04-06T09:57:18;8.90;99.90
20773;DHT22;10546;50.674;4.616;2023-04-06T10:00:05;8.90;99.90
20773;DHT22;10546;50.674;4.616;2023-04-06T10:03:08;8.80;99.90
20773;DHT22;10546;50.674;4.616;2023-04-06T10:08:18;8.60;99.90
20773;DHT22;10546;50.674;4.616;2023-04-06T10:10:44;8.80;99.90
20773;DHT22;10546;50.674;4.616;2023-04-06T10:13:11;8.80;99.90
20773;DHT22;10546;50.674;4.616;2023-04-06T10:15:38;8.90;99.90
20773;DHT22;10546;50.674;4.616;2023-04-06T10:18:05;8.90;99.90
20773;DHT22;10546;50.674;4.616;2023-04-06T10:20:43;8.90;99.90
20773;DHT22;10546;50.674;4.616;2023-04-06T10:25:56;9.00;99.90
20773;DHT22;10546;50.674;4.616;2023-04-06T10:28:22;9.00;99.90
20773;DHT22;10546;50.674;4.616;2023-04-06T10:30:48;9.00;99.90
20773;DHT22;10546;50.674;4.616;2023-04-06T10:33:19;9.00;99.90
20773;DHT22;10546;50.674;4.616;2023-04-06T10:35:45;9.00;99.90
20773;DHT22;10546;50.674;4.616;2023-04-06T10:41:03;9.00;99.90
20773;DHT22;10546;50.674;4.616;2023-04-06T10:43:33;8.90;99.90
20773;DHT22;10546;50.674;4.616;2023-04-06T10:46:03;9.00;99.90
20773;DHT22;10546;50.674;4.616;2023-04-06T10:48:45;9.00;99.90
20773;DHT22;10546;50.674;4.616;2023-04-06T10:51:16;9.00;99.90
20773;DHT22;10546;50.674;4.616;2023-04-06T10:53:46;9.10;99.90
20773;DHT22;10546;50.674;4.616;2023-04-06T10:56:14;9.10;99.90
20773;DHT22;10546;50.674;4.616;2023-04-06T10:58:47;9.10;99.90
20773;DHT22;10546;50.674;4.616;2023-04-06T11:01:32;9.10;99.90
20773;DHT22;10546;50.674;4.616;2023-04-06T11:03:57;9.00;99.90
20773;DHT22;10546;50.674;4.616;2023-04-06T11:06:28;9.00;99.90
20773;DHT22;10546;50.674;4.616;2023-04-06T11:08:55;8.90;99.90
20773;DHT22;10546;50.674;4.616;2023-04-06T11:11:23;8.90;99.90
20773;DHT22;10546;50.674;4.616;2023-04-06T11:16:24;9.00;99.90
20773;DHT22;10546;50.674;4.616;2023-04-06T11:18:57;9.00;99.90
20773;DHT22;10546;50.674;4.616;2023-04-06T11:26:43;8.90;99.90
20773;DHT22;10546;50.674;4.616;2023-04-06T11:29:10;8.90;99.90
20773;DHT22;10546;50.674;4.616;2023-04-06T11:31:41;8.90;99.90
20773;DHT22;10546;50.674;4.616;2023-04-06T11:34:17;9.00;99.90
20773;DHT22;10546;50.674;4.616;2023-04-06T11:36:44;8.80;99.90
20773;DHT22;10546;50.674;4.616;2023-04-06T11:39:12;8.90;99.90
20773;DHT22;10546;50.674;4.616;2023-04-06T11:41:37;8.80;99.90
20773;DHT22;10546;50.674;4.616;2023-04-06T11:44:03;8.90;99.90
20773;DHT22;10546;50.674;4.616;2023-04-06T11:46:31;8.80;99.90
20773;DHT22;10546;50.674;4.616;2023-04-06T11:49:01;8.80;99.90
20773;DHT22;10546;50.674;4.616;2023-04-06T11:51:27;8.80;99.90
20773;DHT22;10546;50.674;4.616;2023-04-06T11:54:06;8.60;99.90
20773;DHT22;10546;50.674;4.616;2023-04-06T11:56:32;8.50;99.90
20773;DHT22;10546;50.674;4.616;2023-04-06T11:59:01;8.60;99.90
20773;DHT22;10546;50.674;4.616;2023-04-06T12:01:44;8.80;99.90
20773;DHT22;10546;50.674;4.616;2023-04-06T12:04:09;8.90;99.90
20773;DHT22;10546;50.674;4.616;2023-04-06T12:06:35;9.00;99.90
20773;DHT22;10546;50.674;4.616;2023-04-06T12:09:01;9.00;99.90
20773;DHT22;10546;50.674;4.616;2023-04-06T12:11:26;9.00;99.90
20773;DHT22;10546;50.674;4.616;2023-04-06T12:13:53;9.10;99.90
20773;DHT22;10546;50.674;4.616;2023-04-06T12:16:19;9.00;99.90
20773;DHT22;10546;50.674;4.616;2023-04-06T12:18:47;8.80;99.90
20773;DHT22;10546;50.674;4.616;2023-04-06T12:21:13;8.80;99.90
20773;DHT22;10546;50.674;4.616;2023-04-06T12:23:39;8.90;99.90
20773;DHT22;10546;50.674;4.616;2023-04-06T12:26:04;9.00;99.90
20773;DHT22;10546;50.674;4.616;2023-04-06T12:28:30;8.90;99.90
20773;DHT22;10546;50.674;4.616;2023-04-06T12:30:56;8.90;99.90
20773;DHT22;10546;50.674;4.616;2023-04-06T12:33:21;8.90;99.90
20773;DHT22;10546;50.674;4.616;2023-04-06T12:35:47;9.00;99.90
20773;DHT22;10546;50.674;4.616;2023-04-06T12:38:13;9.10;99.90
20773;DHT22;10546;50.674;4.616;2023-04-06T12:40:39;9.10;99.90
20773;DHT22;10546;50.674;4.616;2023-04-06T12:43:05;9.20;99.90
20773;DHT22;10546;50.674;4.616;2023-04-06T12:45:31;9.30;99.90
20773;DHT22;10546;50.674;4.616;2023-04-06T12:47:58;9.10;99.90
20773;DHT22;10546;50.674;4.616;2023-04-06T12:50:23;9.00;99.90
20773;DHT22;10546;50.674;4.616;2023-04-06T12:52:49;9.10;99.90
20773;DHT22;10546;50.674;4.616;2023-04-06T12:55:15;9.10;99.90
20773;DHT22;10546;50.674;4.616;2023-04-06T12:57:40;9.20;99.90
20773;DHT22;10546;50.674;4.616;2023-04-06T13:00:07;9.20;99.90
20773;DHT22;10546;50.674;4.616;2023-04-06T13:02:33;9.30;99.90
20773;DHT22;10546;50.674;4.616;2023-04-06T13:04:59;9.30;99.90
20773;DHT22;10546;50.674;4.616;2023-04-06T13:07:25;9.10;99.90
20773;DHT22;10546;50.674;4.616;2023-04-06T13:09:51;9.10;99.90
20773;DHT22;10546;50.674;4.616;2023-04-06T13:12:18;9.10;99.90
20773;DHT22;10546;50.674;4.616;2023-04-06T13:14:44;9.00;99.90
20773;DHT22;10546;50.674;4.616;2023-04-06T13:17:09;8.90;99.90
20773;DHT22;10546;50.674;4.616;2023-04-06T13:19:36;8.90;99.90
20773;DHT22;10546;50.674;4.616;2023-04-06T13:22:01;8.90;99.90
20773;DHT22;10546;50.674;4.616;2023-04-06T13:24:28;8.90;99.90
20773;DHT22;10546;50.674;4.616;2023-04-06T13:26:53;9.00;99.90
20773;DHT22;10546;50.674;4.616;2023-04-06T13:29:19;9.10;99.90
20773;DHT22;10546;50.674;4.616;2023-04-06T13:31:44;9.20;99.90
20773;DHT22;10546;50.674;4.616;2023-04-06T13:34:10;9.20;99.90
20773;DHT22;10546;50.674;4.616;2023-04-06T13:36:36;9.30;99.90
20773;DHT22;10546;50.674;4.616;2023-04-06T13:39:01;9.30;99.90
20773;DHT22;10546;50.674;4.616;2023-04-06T13:41:27;9.30;99.90
20773;DHT22;10546;50.674;4.616;2023-04-06T13:43:56;9.40;99.90
20773;DHT22;10546;50.674;4.616;2023-04-06T13:46:23;9.30;99.90
20773;DHT22;10546;50.674;4.616;2023-04-06T13:48:49;9.40;99.90
20773;DHT22;10546;50.674;4.616;2023-04-06T13:51:15;9.40;99.90
20773;DHT22;10546;50.674;4.616;2023-04-06T13:53:41;9.30;99.90
20773;DHT22;10546;50.674;4.616;2023-04-06T13:56:07;9.30;99.90
20773;DHT22;10546;50.674;4.616;2023-04-06T13:58:33;9.30;99.90
20773;DHT22;10546;50.674;4.616;2023-04-06T14:01:05;9.50;99.90
20773;DHT22;10546;50.674;4.616;2023-04-06T14:03:31;9.30;99.90
20773;DHT22;10546;50.674;4.616;2023-04-06T14:05:57;9.30;99.90
20773;DHT22;10546;50.674;4.616;2023-04-06T14:08:22;9.40;99.90
20773;DHT22;10546;50.674;4.616;2023-04-06T14:10:48;9.50;99.90
20773;DHT22;10546;50.674;4.616;2023-04-06T14:13:14;9.50;99.90
20773;DHT22;10546;50.674;4.616;2023-04-06T14:15:40;9.50;99.90
20773;DHT22;10546;50.674;4.616;2023-04-06T14:18:07;9.50;99.90
20773;DHT22;10546;50.674;4.616;2023-04-06T14:20:33;9.60;99.90
20773;DHT22;10546;50.674;4.616;2023-04-06T14:23:02;9.40;99.90
20773;DHT22;10546;50.674;4.616;2023-04-06T14:25:31;9.40;99.90
20773;DHT22;10546;50.674;4.616;2023-04-06T14:27:57;9.40;99.90
20773;DHT22;10546;50.674;4.616;2023-04-06T14:30:23;9.40;99.90
20773;DHT22;10546;50.674;4.616;2023-04-06T14:32:49;9.40;99.90
20773;DHT22;10546;50.674;4.616;2023-04-06T14:35:17;9.40;99.90
20773;DHT22;10546;50.674;4.616;2023-04-06T14:37:42;9.50;99.90
20773;DHT22;10546;50.674;4.616;2023-04-06T14:40:08;9.60;99.90
20773;DHT22;10546;50.674;4.616;2023-04-06T14:42:35;9.50;99.90
20773;DHT22;10546;50.674;4.616;2023-04-06T14:45:05;9.50;99.90
20773;DHT22;10546;50.674;4.616;2023-04-06T14:47:31;9.50;99.90
20773;DHT22;10546;50.674;4.616;2023-04-06T14:49:57;9.50;99.90
20773;DHT22;10546;50.674;4.616;2023-04-06T14:52:23;9.60;99.90
20773;DHT22;10546;50.674;4.616;2023-04-06T14:54:54;9.70;99.90
20773;DHT22;10546;50.674;4.616;2023-04-06T14:57:20;9.70;99.90
20773;DHT22;10546;50.674;4.616;2023-04-06T14:59:45;9.80;99.90
20773;DHT22;10546;50.674;4.616;2023-04-06T15:02:11;9.80;99.90
20773;DHT22;10546;50.674;4.616;2023-04-06T15:04:38;9.80;99.90
20773;DHT22;10546;50.674;4.616;2023-04-06T15:07:04;9.80;99.90
20773;DHT22;10546;50.674;4.616;2023-04-06T15:09:30;9.90;99.90
20773;DHT22;10546;50.674;4.616;2023-04-06T15:11:55;10.10;99.90
20773;DHT22;10546;50.674;4.616;2023-04-06T15:14:21;10.20;99.90
20773;DHT22;10546;50.674;4.616;2023-04-06T15:16:47;10.10;99.90
20773;DHT22;10546;50.674;4.616;2023-04-06T15:19:12;10.10;99.90
20773;DHT22;10546;50.674;4.616;2023-04-06T15:21:38;10.20;99.90
20773;DHT22;10546;50.674;4.616;2023-04-06T15:24:04;10.20;99.90
20773;DHT22;10546;50.674;4.616;2023-04-06T15:26:31;10.20;99.90
20773;DHT22;10546;50.674;4.616;2023-04-06T15:28:57;10.40;99.90
20773;DHT22;10546;50.674;4.616;2023-04-06T15:31:22;10.50;99.90
20773;DHT22;10546;50.674;4.616;2023-04-06T15:33:48;10.50;99.90
20773;DHT22;10546;50.674;4.616;2023-04-06T15:36:28;10.60;99.90
20773;DHT22;10546;50.674;4.616;2023-04-06T15:39:11;10.60;99.90
20773;DHT22;10546;50.674;4.616;2023-04-06T15:41:36;10.70;99.90
20773;DHT22;10546;50.674;4.616;2023-04-06T15:44:02;10.70;99.90
20773;DHT22;10546;50.674;4.616;2023-04-06T15:46:29;10.70;99.90
20773;DHT22;10546;50.674;4.616;2023-04-06T15:48:55;10.70;99.90
20773;DHT22;10546;50.674;4.616;2023-04-06T15:51:21;10.80;99.90
20773;DHT22;10546;50.674;4.616;2023-04-06T15:53:46;10.90;99.90
20773;DHT22;10546;50.674;4.616;2023-04-06T15:56:12;11.00;99.90
20773;DHT22;10546;50.674;4.616;2023-04-06T15:58:39;11.00;99.90
20773;DHT22;10546;50.674;4.616;2023-04-06T16:01:16;11.10;99.90
20773;DHT22;10546;50.674;4.616;2023-04-06T16:03:42;11.10;99.90
20773;DHT22;10546;50.674;4.616;2023-04-06T16:06:08;11.10;99.90
20773;DHT22;10546;50.674;4.616;2023-04-06T16:08:34;11.10;99.90
20773;DHT22;10546;50.674;4.616;2023-04-06T16:11:00;11.10;99.90
20773;DHT22;10546;50.674;4.616;2023-04-06T16:13:26;11.10;99.90
20773;DHT22;10546;50.674;4.616;2023-04-06T16:15:54;11.10;99.90
20773;DHT22;10546;50.674;4.616;2023-04-06T16:18:20;11.30;99.90
20773;DHT22;10546;50.674;4.616;2023-04-06T16:20:46;11.40;99.90
20773;DHT22;10546;50.674;4.616;2023-04-06T16:23:14;11.30;99.90
20773;DHT22;10546;50.674;4.616;2023-04-06T16:25:40;11.40;99.90
20773;DHT22;10546;50.674;4.616;2023-04-06T16:28:06;11.50;99.90
20773;DHT22;10546;50.674;4.616;2023-04-06T16:30:36;11.50;99.90
20773;DHT22;10546;50.674;4.616;2023-04-06T16:33:03;11.50;99.90
20773;DHT22;10546;50.674;4.616;2023-04-06T16:35:45;11.60;99.90
20773;DHT22;10546;50.674;4.616;2023-04-06T16:38:12;11.50;99.90
20773;DHT22;10546;50.674;4.616;2023-04-06T16:40:38;11.50;99.90
20773;DHT22;10546;50.674;4.616;2023-04-06T16:43:04;11.60;99.90
20773;DHT22;10546;50.674;4.616;2023-04-06T16:45:30;11.50;99.90
20773;DHT22;10546;50.674;4.616;2023-04-06T16:47:56;11.50;99.90
20773;DHT22;10546;50.674;4.616;2023-04-06T16:50:22;11.50;99.90
20773;DHT22;10546;50.674;4.616;2023-04-06T16:52:47;11.50;99.90
20773;DHT22;10546;50.674;4.616;2023-04-06T16:55:13;11.50;99.90
20773;DHT22;10546;50.674;4.616;2023-04-06T16:57:41;11.50;99.90
20773;DHT22;10546;50.674;4.616;2023-04-06T17:00:07;11.40;99.90
20773;DHT22;10546;50.674;4.616;2023-04-06T17:02:34;11.50;99.90
20773;DHT22;10546;50.674;4.616;2023-04-06T17:05:02;11.40;99.90
20773;DHT22;10546;50.674;4.616;2023-04-06T17:07:28;11.30;99.90
20773;DHT22;10546;50.674;4.616;2023-04-06T17:10:00;11.30;99.90
20773;DHT22;10546;50.674;4.616;2023-04-06T17:12:29;11.30;99.90
20773;DHT22;10546;50.674;4.616;2023-04-06T17:14:55;11.30;99.90
20773;DHT22;10546;50.674;4.616;2023-04-06T17:17:21;11.20;99.90
20773;DHT22;10546;50.674;4.616;2023-04-06T17:19:46;11.10;99.90
20773;DHT22;10546;50.674;4.616;2023-04-06T17:22:12;11.20;99.90
20773;DHT22;10546;50.674;4.616;2023-04-06T17:24:38;11.20;99.90
20773;DHT22;10546;50.674;4.616;2023-04-06T17:27:03;11.10;99.90
20773;DHT22;10546;50.674;4.616;2023-04-06T17:29:29;11.20;99.90
20773;DHT22;10546;50.674;4.616;2023-04-06T17:32:02;11.10;99.90
20773;DHT22;10546;50.674;4.616;2023-04-06T17:34:28;11.20;99.90
20773;DHT22;10546;50.674;4.616;2023-04-06T17:36:53;11.20;99.90
20773;DHT22;10546;50.674;4.616;2023-04-06T17:39:19;11.20;99.90
20773;DHT22;10546;50.674;4.616;2023-04-06T17:41:44;11.10;99.90
20773;DHT22;10546;50.674;4.616;2023-04-06T17:44:10;11.20;99.90
20773;DHT22;10546;50.674;4.616;2023-04-06T17:46:36;11.20;99.90
20773;DHT22;10546;50.674;4.616;2023-04-06T17:49:01;11.30;99.90
20773;DHT22;10546;50.674;4.616;2023-04-06T17:51:27;11.20;99.90
20773;DHT22;10546;50.674;4.616;2023-04-06T17:53:53;11.20;99.90
20773;DHT22;10546;50.674;4.616;2023-04-06T17:56:18;11.10;99.90
20773;DHT22;10546;50.674;4.616;2023-04-06T17:58:45;11.20;99.90
20773;DHT22;10546;50.674;4.616;2023-04-06T18:01:11;11.20;99.90
20773;DHT22;10546;50.674;4.616;2023-04-06T18:03:37;11.20;99.90
20773;DHT22;10546;50.674;4.616;2023-04-06T18:06:15;11.30;99.90
20773;DHT22;10546;50.674;4.616;2023-04-06T18:08:42;11.10;99.90
20773;DHT22;10546;50.674;4.616;2023-04-06T18:11:17;11.20;99.90
20773;DHT22;10546;50.674;4.616;2023-04-06T18:13:45;11.10;99.90
20773;DHT22;10546;50.674;4.616;2023-04-06T18:16:11;11.30;99.90
20773;DHT22;10546;50.674;4.616;2023-04-06T18:18:37;11.10;99.90
20773;DHT22;10546;50.674;4.616;2023-04-06T18:21:06;11.10;99.90
20773;DHT22;10546;50.674;4.616;2023-04-06T18:23:33;11.10;99.90
20773;DHT22;10546;50.674;4.616;2023-04-06T18:25:59;11.20;99.90
20773;DHT22;10546;50.674;4.616;2023-04-06T18:28:25;11.20;99.90
20773;DHT22;10546;50.674;4.616;2023-04-06T18:30:51;11.10;99.90
20773;DHT22;10546;50.674;4.616;2023-04-06T18:33:17;11.00;99.90
20773;DHT22;10546;50.674;4.616;2023-04-06T18:35:43;11.00;99.90
20773;DHT22;10546;50.674;4.616;2023-04-06T18:38:41;11.00;99.90
20773;DHT22;10546;50.674;4.616;2023-04-06T18:41:07;11.00;99.90
20773;DHT22;10546;50.674;4.616;2023-04-06T18:43:32;11.00;99.90
20773;DHT22;10546;50.674;4.616;2023-04-06T18:46:01;10.90;99.90
20773;DHT22;10546;50.674;4.616;2023-04-06T18:48:28;10.90;99.90
20773;DHT22;10546;50.674;4.616;2023-04-06T18:50:55;10.90;99.90
20773;DHT22;10546;50.674;4.616;2023-04-06T18:53:26;10.80;99.90